Time;durP1;ratioP1;P1;durP2;ratioP2;P2;SDS_P1;SDS_P2;PMS_P1;PMS_P2;Temp;Humidity;BMP_temperature;BMP_pressure;BME280_temperature;BME280_humidity;BME280_pressure;Samples;Min_cycle;Max_cycle;Signal;HPM_P1;HPM_P2
2023/09/09 06:00:36;;;;;;;;;21.33;19.00;;;;;;;;6237685;22;45672;-81
2023/09/09 06:03:02;;;;;;;;;16.33;15.00;;;;;;;;6308172;22;45507;-82
2023/09/09 06:05:27;;;;;;;;;17.00;16.00;;;;;;;;6308205;22;45773;-84
2023/09/09 06:07:53;;;;;;;;;19.00;19.00;;;;;;;;6309428;22;45405;-81
2023/09/09 06:10:18;;;;;;;;;18.67;16.33;;;;;;;;6280528;22;45278;-82
2023/09/09 06:12:43;;;;;;;;;21.67;18.67;;;;;;;;6278809;22;47024;-82
2023/09/09 06:15:09;;;;;;;;;23.00;15.67;;;;;;;;6309903;22;45276;-82
2023/09/09 06:17:36;;;;;;;;;18.67;16.33;;;;;;;;6307837;22;45326;-81
2023/09/09 06:20:01;;;;;;;;;21.33;20.33;;;;;;;;6310862;22;45217;-81
2023/09/09 06:22:26;;;;;;;;;17.33;16.00;;;;;;;;6310278;22;45294;-82
2023/09/09 06:24:51;;;;;;;;;23.67;19.67;;;;;;;;6310869;22;45913;-82
2023/09/09 06:27:16;;;;;;;;;20.00;18.67;;;;;;;;6310233;22;45314;-82
2023/09/09 06:29:42;;;;;;;;;21.00;19.00;;;;;;;;6308863;22;45432;-80
2023/09/09 06:32:09;;;;;;;;;20.67;19.00;;;;;;;;6309543;22;45538;-82
2023/09/09 06:34:34;;;;;;;;;14.33;14.33;;;;;;;;6306736;22;45285;-83
2023/09/09 06:37:01;;;;;;;;;21.67;16.33;;;;;;;;6309456;22;45341;-80
2023/09/09 06:39:26;;;;;;;;;16.00;15.00;;;;;;;;6309474;22;45218;-82
2023/09/09 06:41:51;;;;;;;;;21.33;19.33;;;;;;;;6281279;22;47039;-78
2023/09/09 06:44:17;;;;;;;;;21.33;21.00;;;;;;;;6308975;22;45261;-77
2023/09/09 06:46:42;;;;;;;;;20.67;18.00;;;;;;;;6309557;22;45107;-77
2023/09/09 06:49:07;;;;;;;;;24.67;19.00;;;;;;;;6280762;22;45208;-77
2023/09/09 06:51:32;;;;;;;;;23.00;20.00;;;;;;;;6309743;22;45197;-77
2023/09/09 06:53:57;;;;;;;;;22.00;19.00;;;;;;;;6308805;22;45889;-77
2023/09/09 06:56:23;;;;;;;;;20.33;18.00;;;;;;;;6309254;22;45275;-77
2023/09/09 06:58:48;;;;;;;;;21.33;19.00;;;;;;;;6281402;22;45304;-77
2023/09/09 07:01:13;;;;;;;;;19.00;18.00;;;;;;;;6280080;22;45662;-77
2023/09/09 07:03:39;;;;;;;;;25.67;22.00;;;;;;;;6309742;22;45337;-77
2023/09/09 07:06:04;;;;;;;;;20.67;19.33;;;;;;;;6309125;22;45418;-77
2023/09/09 07:08:30;;;;;;;;;19.33;17.33;;;;;;;;6310120;22;45278;-77
2023/09/09 07:10:56;;;;;;;;;22.00;22.00;;;;;;;;6280628;22;45458;-77
2023/09/09 07:13:22;;;;;;;;;25.33;21.33;;;;;;;;6310160;22;45345;-77
2023/09/09 07:15:50;;;;;;;;;21.00;20.00;;;;;;;;6280763;22;45359;-78
2023/09/09 07:18:15;;;;;;;;;21.33;17.00;;;;;;;;6281859;22;45201;-77
2023/09/09 07:20:42;;;;;;;;;20.75;19.00;;;;;;;;6309457;22;45170;-77
2023/09/09 07:23:07;;;;;;;;;21.75;18.75;;;;;;;;6309476;22;45997;-77
2023/09/09 07:25:32;;;;;;;;;25.75;21.25;;;;;;;;6309240;22;45134;-78
2023/09/09 07:27:58;;;;;;;;;20.75;19.25;;;;;;;;6309902;22;45260;-77
2023/09/09 07:30:23;;;;;;;;;21.00;19.25;;;;;;;;6308797;22;45290;-77
2023/09/09 07:32:49;;;;;;;;;21.75;19.00;;;;;;;;6255696;22;47082;-78
2023/09/09 07:35:14;;;;;;;;;18.75;18.25;;;;;;;;6309266;22;45220;-78
2023/09/09 07:37:39;;;;;;;;;19.50;18.00;;;;;;;;6310035;22;45193;-78
2023/09/09 07:40:05;;;;;;;;;22.00;18.75;;;;;;;;6308668;22;45556;-79
2023/09/09 07:42:30;;;;;;;;;19.75;19.75;;;;;;;;6281029;22;47027;-78
2023/09/09 07:44:55;;;;;;;;;28.00;25.50;;;;;;;;6308762;22;45251;-77
2023/09/09 07:47:21;;;;;;;;;21.50;16.25;;;;;;;;6309686;22;45250;-78
2023/09/09 07:49:46;;;;;;;;;20.25;18.00;;;;;;;;6309273;22;45405;-78
2023/09/09 07:52:11;;;;;;;;;24.00;21.50;;;;;;;;6308980;22;46414;-78
2023/09/09 07:54:37;;;;;;;;;20.75;17.75;;;;;;;;6309579;22;45232;-78
2023/09/09 07:57:02;;;;;;;;;19.00;17.00;;;;;;;;6281766;22;45282;-78
2023/09/09 07:59:28;;;;;;;;;14.75;13.75;;;;;;;;6308726;22;45180;-78
2023/09/09 08:01:53;;;;;;;;;15.25;15.25;;;;;;;;6275043;22;46835;-78
2023/09/09 08:04:19;;;;;;;;;16.50;13.50;;;;;;;;6277516;22;45206;-78
2023/09/09 08:06:45;;;;;;;;;14.50;12.25;;;;;;;;6278391;22;45564;-77
2023/09/09 08:09:10;;;;;;;;;19.50;15.75;;;;;;;;6277704;22;45370;-78
2023/09/09 08:11:35;;;;;;;;;15.50;13.25;;;;;;;;6277278;22;45191;-78
2023/09/09 08:14:01;;;;;;;;;12.50;10.50;;;;;;;;6278097;22;45167;-78
2023/09/09 08:16:26;;;;;;;;;17.75;15.50;;;;;;;;6277825;22;45170;-78
2023/09/09 08:18:51;;;;;;;;;15.50;13.25;;;;;;;;6278110;22;45096;-78
2023/09/09 08:21:16;;;;;;;;;13.25;12.50;;;;;;;;6277603;22;45286;-78
2023/09/09 08:23:41;;;;;;;;;14.00;11.75;;;;;;;;6276369;22;45208;-78
2023/09/09 08:26:07;;;;;;;;;15.25;15.25;;;;;;;;6277809;22;45371;-78
2023/09/09 08:28:32;;;;;;;;;18.25;13.00;;;;;;;;6278253;22;45130;-78
2023/09/09 08:30:58;;;;;;;;;17.50;13.25;;;;;;;;6275353;22;47446;-78
2023/09/09 08:33:23;;;;;;;;;11.25;11.25;;;;;;;;6278233;22;45255;-78
2023/09/09 08:35:48;;;;;;;;;16.25;12.25;;;;;;;;6275717;22;45294;-78
2023/09/09 08:38:13;;;;;;;;;14.00;11.25;;;;;;;;6275922;22;46020;-79
2023/09/09 08:40:45;;;;;;;;;14.00;13.00;;;;;;;;6277681;22;46545;-77
2023/09/09 08:43:28;;;;;;;;;13.60;12.00;;;;;;;;6278091;22;45227;-79
2023/09/09 08:45:53;;;;;;;;;11.80;10.20;;;;;;;;6275114;22;45199;-79
2023/09/09 08:48:18;;;;;;;;;11.75;10.75;;;;;;;;6276070;22;45525;-79
2023/09/09 08:50:46;;;;;;;;;15.75;14.00;;;;;;;;6277687;22;46415;-77
2023/09/09 08:53:13;;;;;;;;;11.20;11.20;;;;;;;;6277528;22;45169;-77
2023/09/09 08:55:39;;;;;;;;;13.60;12.00;;;;;;;;6277783;22;45311;-78
2023/09/09 08:58:05;;;;;;;;;12.40;10.00;;;;;;;;6277216;22;45319;-78
2023/09/09 09:00:34;;;;;;;;;11.40;10.80;;;;;;;;6286583;22;45884;-78
2023/09/09 09:03:01;;;;;;;;;10.60;10.00;;;;;;;;6280924;22;45105;-79
2023/09/09 09:05:27;;;;;;;;;14.40;12.40;;;;;;;;6308561;22;45204;-78
2023/09/09 09:07:52;;;;;;;;;11.75;11.25;;;;;;;;6308934;22;45344;-79
2023/09/09 09:10:18;;;;;;;;;10.75;10.00;;;;;;;;6308836;22;45958;-79
2023/09/09 09:12:44;;;;;;;;;10.00;8.80;;;;;;;;6309181;22;45338;-78
2023/09/09 09:15:10;;;;;;;;;10.80;10.80;;;;;;;;6308553;22;45287;-79
2023/09/09 09:17:39;;;;;;;;;14.20;13.20;;;;;;;;6280719;22;46330;-79
2023/09/09 09:20:07;;;;;;;;;15.00;12.80;;;;;;;;6308711;22;45144;-78
2023/09/09 09:22:32;;;;;;;;;11.40;11.20;;;;;;;;6308989;22;45171;-79
2023/09/09 09:24:57;;;;;;;;;9.00;9.00;;;;;;;;6280861;22;45256;-79
2023/09/09 09:27:22;;;;;;;;;12.00;12.00;;;;;;;;6308630;22;45117;-79
2023/09/09 09:29:48;;;;;;;;;9.00;9.00;;;;;;;;6279379;22;47853;-79
2023/09/09 09:32:15;;;;;;;;;13.25;13.25;;;;;;;;6308003;22;45318;-79
2023/09/09 09:34:41;;;;;;;;;12.00;11.00;;;;;;;;6307924;22;45537;-79
2023/09/09 09:37:13;;;;;;;;;11.00;11.00;;;;;;;;6308664;22;45372;-79
2023/09/09 09:39:38;;;;;;;;;13.40;12.20;;;;;;;;6308211;22;46413;-80
2023/09/09 09:42:04;;;;;;;;;16.75;13.50;;;;;;;;6280211;22;45294;-79
2023/09/09 09:44:29;;;;;;;;;15.25;12.00;;;;;;;;6308188;22;45276;-79
2023/09/09 09:47:02;;;;;;;;;14.00;11.50;;;;;;;;6280648;22;45918;-79
2023/09/09 09:49:35;;;;;;;;;13.20;12.60;;;;;;;;6279374;22;47551;-79
2023/09/09 09:52:01;;;;;;;;;13.60;11.60;;;;;;;;6308912;22;45342;-79
2023/09/09 09:54:28;;;;;;;;;11.40;10.60;;;;;;;;6308484;22;45290;-79
2023/09/09 09:56:55;;;;;;;;;11.75;11.75;;;;;;;;6308636;22;45263;-79
2023/09/09 09:59:22;;;;;;;;;12.00;10.20;;;;;;;;6307425;22;46075;-79
2023/09/09 10:01:48;;;;;;;;;14.80;12.60;;;;;;;;6308180;22;45248;-79
2023/09/09 10:04:16;;;;;;;;;10.80;9.60;;;;;;;;6308589;22;45382;-79
2023/09/09 10:06:42;;;;;;;;;12.20;12.20;;;;;;;;6279876;22;46022;-79
2023/09/09 10:09:10;;;;;;;;;9.50;9.50;;;;;;;;6278892;22;45536;-80
2023/09/09 10:11:40;;;;;;;;;12.40;12.40;;;;;;;;6307996;22;45297;-80
2023/09/09 10:14:12;;;;;;;;;10.00;10.00;;;;;;;;6308350;22;45142;-79
2023/09/09 10:16:38;;;;;;;;;11.40;10.80;;;;;;;;6278971;22;45244;-79
2023/09/09 10:19:03;;;;;;;;;16.00;15.50;;;;;;;;6307823;22;46149;-78
2023/09/09 10:21:30;;;;;;;;;15.50;13.75;;;;;;;;6308179;22;45187;-79
2023/09/09 10:23:56;;;;;;;;;15.40;12.00;;;;;;;;6308528;22;45224;-80
2023/09/09 10:26:21;;;;;;;;;15.00;13.00;;;;;;;;6307999;22;45375;-78
2023/09/09 10:28:48;;;;;;;;;15.25;13.75;;;;;;;;6307591;22;47377;-79
2023/09/09 10:31:14;;;;;;;;;14.40;13.40;;;;;;;;6307682;22;45407;-79
2023/09/09 10:33:42;;;;;;;;;13.75;13.50;;;;;;;;6308639;22;45292;-78
2023/09/09 10:36:08;;;;;;;;;13.60;13.60;;;;;;;;6307717;22;45274;-78
2023/09/09 10:38:34;;;;;;;;;16.00;12.00;;;;;;;;6306363;22;45210;-78
2023/09/09 10:41:00;;;;;;;;;8.75;4.25;;;;;;;;6307758;22;45264;-78
2023/09/09 10:43:25;;;;;;;;;9.40;8.40;;;;;;;;6308531;22;45316;-78
2023/09/09 10:45:50;;;;;;;;;12.00;12.00;;;;;;;;6310044;22;45453;-78
2023/09/09 10:48:20;;;;;;;;;15.00;14.00;;;;;;;;6309281;22;45211;-78
2023/09/09 10:50:50;;;;;;;;;14.20;14.20;;;;;;;;6308642;22;45204;-78
2023/09/09 10:53:23;;;;;;;;;13.00;13.00;;;;;;;;6307218;22;45148;-78
2023/09/09 10:55:52;;;;;;;;;19.60;16.00;;;;;;;;6309181;22;45251;-78
2023/09/09 10:58:19;;;;;;;;;15.60;15.00;;;;;;;;6309094;22;45176;-78
2023/09/09 11:00:48;;;;;;;;;19.00;17.60;;;;;;;;6305455;22;45259;-79
2023/09/09 11:03:14;;;;;;;;;21.80;19.20;;;;;;;;6280029;22;45220;-78
2023/09/09 11:06:05;;;;;;;;;21.40;20.20;;;;;;;;6308185;22;45262;-78
2023/09/09 11:08:30;;;;;;;;;14.40;13.00;;;;;;;;6308942;22;47146;-79
2023/09/09 11:11:09;;;;;;;;;15.50;15.00;;;;;;;;6309199;22;45320;-81
2023/09/09 11:13:48;;;;;;;;;14.40;13.60;;;;;;;;6309345;22;45164;-78
2023/09/09 11:16:43;;;;;;;;;15.40;14.60;;;;;;;;6308156;22;45534;-78
2023/09/09 11:19:12;;;;;;;;;48.50;39.25;;;;;;;;6247465;22;47082;-78
2023/09/09 11:21:38;;;;;;;;;15.20;13.20;;;;;;;;6309272;22;45232;-79
2023/09/09 11:24:03;;;;;;;;;17.00;16.00;;;;;;;;6309230;22;45278;-78
2023/09/09 11:26:29;;;;;;;;;12.75;12.25;;;;;;;;6309248;22;45228;-80
2023/09/09 11:28:54;;;;;;;;;13.75;13.00;;;;;;;;6309212;22;45156;-78
2023/09/09 11:31:20;;;;;;;;;16.00;13.25;;;;;;;;6308875;22;45188;-79
2023/09/09 11:33:45;;;;;;;;;12.75;11.75;;;;;;;;6309590;22;45213;-78
2023/09/09 11:36:14;;;;;;;;;10.75;10.75;;;;;;;;6280053;22;45567;-79
2023/09/09 11:38:39;;;;;;;;;12.60;12.40;;;;;;;;6308989;22;46077;-79
2023/09/09 11:41:05;;;;;;;;;13.25;12.00;;;;;;;;6308857;22;45255;-79
2023/09/09 11:43:30;;;;;;;;;12.00;12.00;;;;;;;;6309638;22;45278;-79
2023/09/09 11:45:56;;;;;;;;;12.00;11.25;;;;;;;;6308592;22;45179;-79
2023/09/09 11:48:22;;;;;;;;;11.75;11.75;;;;;;;;6308908;22;46084;-79
2023/09/09 11:50:48;;;;;;;;;14.20;12.60;;;;;;;;6281032;22;45312;-79
2023/09/09 11:53:13;;;;;;;;;14.75;14.75;;;;;;;;6309038;22;45311;-78
2023/09/09 11:55:39;;;;;;;;;13.75;12.50;;;;;;;;6308708;22;45174;-78
2023/09/09 11:58:07;;;;;;;;;13.50;13.50;;;;;;;;6308153;22;45149;-78
2023/09/09 12:00:33;;;;;;;;;12.00;11.40;;;;;;;;6306243;22;45324;-79
2023/09/09 12:02:58;;;;;;;;;14.25;13.25;;;;;;;;6309093;22;45207;-79
2023/09/09 12:05:30;;;;;;;;;14.00;11.75;;;;;;;;6308777;22;45200;-78
2023/09/09 12:07:56;;;;;;;;;14.00;12.80;;;;;;;;6280607;22;45228;-79
2023/09/09 12:10:21;;;;;;;;;13.40;12.20;;;;;;;;6308536;22;45247;-79
2023/09/09 12:12:47;;;;;;;;;13.25;11.75;;;;;;;;6280022;22;45106;-78
2023/09/09 12:15:13;;;;;;;;;11.25;11.25;;;;;;;;6308146;22;45244;-78
2023/09/09 12:17:39;;;;;;;;;11.60;11.60;;;;;;;;6308663;22;45260;-79
2023/09/09 12:20:08;;;;;;;;;14.50;12.25;;;;;;;;6307576;22;45315;-78
2023/09/09 12:22:41;;;;;;;;;9.20;9.20;;;;;;;;6281018;22;45275;-79
2023/09/09 12:25:27;;;;;;;;;11.00;11.00;;;;;;;;6308355;22;45271;-79
2023/09/09 12:27:52;;;;;;;;;13.20;11.00;;;;;;;;6308693;22;45378;-80
2023/09/09 12:30:32;;;;;;;;;9.50;9.50;;;;;;;;6308187;22;45340;-79
2023/09/09 12:33:09;;;;;;;;;10.60;10.60;;;;;;;;6309411;22;45242;-80
2023/09/09 12:35:35;;;;;;;;;11.60;10.00;;;;;;;;6306518;22;45252;-79
2023/09/09 12:38:00;;;;;;;;;10.40;10.40;;;;;;;;6306870;22;45324;-80
2023/09/09 12:40:25;;;;;;;;;12.00;12.00;;;;;;;;6279510;22;45304;-79
2023/09/09 12:42:54;;;;;;;;;11.50;11.00;;;;;;;;6308916;22;45282;-80
2023/09/09 12:45:22;;;;;;;;;12.00;11.60;;;;;;;;6308048;22;45172;-77
2023/09/09 12:47:49;;;;;;;;;10.80;10.00;;;;;;;;6308424;22;46271;-78
2023/09/09 12:50:15;;;;;;;;;8.60;8.60;;;;;;;;6308196;22;45200;-76
2023/09/09 12:52:43;;;;;;;;;12.00;10.00;;;;;;;;6309031;22;45433;-78
2023/09/09 12:55:08;;;;;;;;;14.80;13.20;;;;;;;;6308032;22;45444;-77
2023/09/09 12:57:33;;;;;;;;;9.25;9.25;;;;;;;;6279671;22;46603;-77
2023/09/09 12:59:58;;;;;;;;;9.00;7.50;;;;;;;;6307918;22;45501;-77
2023/09/09 13:02:23;;;;;;;;;11.75;11.50;;;;;;;;6308748;22;45235;-76
2023/09/09 13:04:49;;;;;;;;;10.50;10.50;;;;;;;;6309417;22;45176;-77
2023/09/09 13:07:14;;;;;;;;;11.75;11.75;;;;;;;;6308167;22;45255;-77
2023/09/09 13:09:39;;;;;;;;;10.25;10.25;;;;;;;;6308251;22;45224;-77
2023/09/09 13:12:04;;;;;;;;;10.75;9.75;;;;;;;;6308731;22;45535;-78
2023/09/09 13:14:30;;;;;;;;;11.50;10.50;;;;;;;;6307697;22;45239;-77
2023/09/09 13:16:55;;;;;;;;;10.00;10.00;;;;;;;;6279698;22;46751;-78
2023/09/09 13:19:20;;;;;;;;;11.50;10.75;;;;;;;;6308304;22;45376;-78
2023/09/09 13:21:45;;;;;;;;;11.00;10.50;;;;;;;;6280818;22;45207;-77
2023/09/09 13:24:11;;;;;;;;;11.50;9.75;;;;;;;;6308455;22;44618;-79
2023/09/09 13:26:36;;;;;;;;;12.00;10.50;;;;;;;;6308436;22;45203;-78
2023/09/09 13:29:01;;;;;;;;;11.25;10.50;;;;;;;;6308389;22;45235;-78
2023/09/09 13:31:26;;;;;;;;;12.00;11.00;;;;;;;;6308761;22;45239;-78
2023/09/09 13:33:52;;;;;;;;;10.50;9.75;;;;;;;;6306806;22;45373;-79
2023/09/09 13:36:17;;;;;;;;;13.25;10.75;;;;;;;;6307777;22;45909;-79
2023/09/09 13:38:42;;;;;;;;;13.00;11.75;;;;;;;;6308361;22;45193;-78
2023/09/09 13:41:07;;;;;;;;;9.00;8.00;;;;;;;;6308093;22;45234;-77
2023/09/09 13:43:32;;;;;;;;;10.50;10.50;;;;;;;;6308231;22;45178;-77
2023/09/09 13:45:58;;;;;;;;;10.50;8.75;;;;;;;;6279177;22;45639;-77
2023/09/09 13:48:23;;;;;;;;;10.00;10.00;;;;;;;;6308221;22;45243;-78
2023/09/09 13:50:49;;;;;;;;;8.75;8.75;;;;;;;;6281383;22;45212;-78
2023/09/09 13:53:14;;;;;;;;;11.00;11.00;;;;;;;;6307609;22;45285;-79
2023/09/09 13:55:39;;;;;;;;;10.25;10.25;;;;;;;;6307888;22;46077;-78
2023/09/09 13:58:05;;;;;;;;;6.75;6.75;;;;;;;;6308132;22;45311;-78
2023/09/09 14:00:30;;;;;;;;;10.00;10.00;;;;;;;;6305646;22;45393;-78
2023/09/09 14:02:55;;;;;;;;;10.50;10.50;;;;;;;;6308052;22;45323;-80
2023/09/09 14:05:20;;;;;;;;;85.00;79.25;;;;;;;;6308464;22;45262;-80
2023/09/09 14:07:46;;;;;;;;;11.25;11.25;;;;;;;;6308120;22;45221;-81
2023/09/09 14:10:11;;;;;;;;;14.50;14.25;;;;;;;;6309592;22;45273;-79
2023/09/09 14:12:38;;;;;;;;;11.50;11.50;;;;;;;;6309059;22;45279;-78
2023/09/09 14:15:04;;;;;;;;;12.00;12.00;;;;;;;;6278424;22;47452;-80
2023/09/09 14:17:29;;;;;;;;;8.75;8.75;;;;;;;;6308255;22;45144;-79
2023/09/09 14:19:54;;;;;;;;;9.25;7.50;;;;;;;;6308384;22;45249;-78
2023/09/09 14:22:19;;;;;;;;;11.50;9.75;;;;;;;;6308915;22;45313;-79
2023/09/09 14:24:45;;;;;;;;;26.25;25.75;;;;;;;;6309124;22;45275;-78
2023/09/09 14:27:10;;;;;;;;;68.67;62.33;;;;;;;;6309321;22;45161;-78
2023/09/09 14:29:35;;;;;;;;;10.25;9.00;;;;;;;;6308259;22;45141;-78
2023/09/09 14:32:00;;;;;;;;;10.75;10.25;;;;;;;;6309436;22;45106;-79
2023/09/09 14:34:26;;;;;;;;;7.75;7.75;;;;;;;;6280986;22;45819;-78
2023/09/09 14:36:51;;;;;;;;;16.00;16.00;;;;;;;;6309949;22;45278;-78
2023/09/09 14:39:16;;;;;;;;;12.75;11.25;;;;;;;;6307138;22;45111;-78
2023/09/09 14:41:42;;;;;;;;;10.00;9.50;;;;;;;;6281105;22;45182;-79
2023/09/09 14:44:07;;;;;;;;;8.00;7.00;;;;;;;;6309050;22;45307;-78
2023/09/09 14:46:32;;;;;;;;;12.25;10.50;;;;;;;;6309205;22;45224;-78
2023/09/09 14:48:58;;;;;;;;;10.00;8.50;;;;;;;;6309742;22;45152;-78
2023/09/09 14:51:24;;;;;;;;;9.40;8.40;;;;;;;;6281147;22;46172;-77
2023/09/09 14:53:49;;;;;;;;;12.50;10.75;;;;;;;;6308423;22;46091;-78
2023/09/09 14:56:14;;;;;;;;;8.75;8.75;;;;;;;;6308833;22;45483;-78
2023/09/09 14:58:39;;;;;;;;;9.00;9.00;;;;;;;;6281286;22;45168;-78
2023/09/09 15:01:04;;;;;;;;;13.25;11.50;;;;;;;;6307850;22;45312;-78
2023/09/09 15:03:30;;;;;;;;;7.00;7.00;;;;;;;;6309517;22;45346;-78
2023/09/09 15:05:55;;;;;;;;;8.75;8.75;;;;;;;;6308630;22;45236;-78
2023/09/09 15:08:20;;;;;;;;;10.00;10.00;;;;;;;;6309476;22;45319;-78
2023/09/09 15:10:45;;;;;;;;;9.00;8.50;;;;;;;;6309199;22;45488;-78
2023/09/09 15:13:10;;;;;;;;;10.00;8.75;;;;;;;;6309667;22;45232;-78
2023/09/09 15:15:38;;;;;;;;;9.20;9.20;;;;;;;;6308296;22;45199;-78
2023/09/09 15:18:05;;;;;;;;;11.40;9.00;;;;;;;;6309038;22;45248;-78
2023/09/09 15:20:30;;;;;;;;;10.20;10.20;;;;;;;;6308965;22;45361;-78
2023/09/09 15:22:55;;;;;;;;;10.25;10.25;;;;;;;;6280096;22;47396;-78
2023/09/09 15:25:20;;;;;;;;;6.75;6.75;;;;;;;;6309036;22;45180;-78
2023/09/09 15:27:46;;;;;;;;;9.50;9.50;;;;;;;;6309010;22;45093;-78
2023/09/09 15:30:11;;;;;;;;;8.75;8.75;;;;;;;;6307802;22;45540;-78
2023/09/09 15:32:36;;;;;;;;;8.00;8.00;;;;;;;;6308681;22;45167;-77
2023/09/09 15:35:03;;;;;;;;;10.50;8.75;;;;;;;;6308761;22;45227;-78
2023/09/09 15:37:28;;;;;;;;;9.40;8.60;;;;;;;;6308017;22;45227;-78
2023/09/09 15:39:53;;;;;;;;;8.25;8.25;;;;;;;;6308888;22;45160;-78
2023/09/09 15:42:18;;;;;;;;;9.25;9.25;;;;;;;;6309013;22;45308;-78
2023/09/09 15:44:47;;;;;;;;;10.25;10.00;;;;;;;;6307106;22;45148;-78
2023/09/09 15:47:13;;;;;;;;;9.20;9.20;;;;;;;;6308641;22;45279;-79
2023/09/09 15:49:38;;;;;;;;;8.75;8.00;;;;;;;;6281207;22;45336;-77
2023/09/09 15:52:03;;;;;;;;;11.25;10.00;;;;;;;;6308974;22;46025;-77
2023/09/09 15:54:28;;;;;;;;;12.25;10.50;;;;;;;;6281921;22;45217;-78
2023/09/09 15:56:53;;;;;;;;;11.25;10.00;;;;;;;;6310042;22;45270;-76
2023/09/09 15:59:19;;;;;;;;;11.00;10.00;;;;;;;;6308829;22;45290;-77
2023/09/09 16:01:44;;;;;;;;;8.00;8.00;;;;;;;;6280125;22;46856;-77
2023/09/09 16:04:09;;;;;;;;;9.00;8.00;;;;;;;;6309483;22;45266;-77
2023/09/09 16:06:34;;;;;;;;;10.25;10.25;;;;;;;;6309053;22;45449;-78
2023/09/09 16:08:59;;;;;;;;;10.00;8.75;;;;;;;;6309861;22;45199;-78
2023/09/09 16:11:25;;;;;;;;;12.00;10.00;;;;;;;;6310531;22;46571;-83
2023/09/09 16:13:50;;;;;;;;;9.25;8.00;;;;;;;;6311995;22;44523;-82
2023/09/09 16:16:15;;;;;;;;;8.50;8.25;;;;;;;;6306290;22;45441;-82
2023/09/09 16:18:41;;;;;;;;;8.50;8.50;;;;;;;;6272438;22;45303;-81
2023/09/09 16:21:06;;;;;;;;;10.25;9.25;;;;;;;;6306761;22;45987;-80
2023/09/09 16:23:31;;;;;;;;;9.25;9.25;;;;;;;;6307323;22;45284;-80
2023/09/09 16:25:57;;;;;;;;;8.75;8.75;;;;;;;;6306997;22;45224;-81
2023/09/09 16:28:22;;;;;;;;;10.00;9.75;;;;;;;;6307557;22;45180;-80
2023/09/09 16:30:48;;;;;;;;;10.00;8.50;;;;;;;;6306514;22;45215;-81
2023/09/09 16:33:13;;;;;;;;;8.00;8.00;;;;;;;;6309317;22;45141;-80
2023/09/09 16:35:42;;;;;;;;;9.00;8.75;;;;;;;;6309187;22;45378;-82
2023/09/09 16:38:08;;;;;;;;;13.40;10.00;;;;;;;;6254584;22;46013;-82
2023/09/09 16:40:33;;;;;;;;;9.25;7.50;;;;;;;;6281549;22;46353;-84
2023/09/09 16:42:59;;;;;;;;;10.75;9.75;;;;;;;;6308885;22;45232;-83
2023/09/09 16:45:24;;;;;;;;;8.75;8.25;;;;;;;;6307918;22;45278;-82
2023/09/09 16:47:50;;;;;;;;;10.00;10.00;;;;;;;;6279037;22;45446;-85
2023/09/09 16:50:15;;;;;;;;;11.00;11.00;;;;;;;;6307076;22;46301;-85
2023/09/09 16:52:40;;;;;;;;;9.25;9.25;;;;;;;;6309678;22;45249;-84
2023/09/09 16:55:06;;;;;;;;;12.75;12.75;;;;;;;;6309486;22;45330;-86
2023/09/09 16:57:31;;;;;;;;;8.25;8.25;;;;;;;;6312407;22;45400;-87
2023/09/09 16:59:57;;;;;;;;;10.00;10.00;;;;;;;;6312306;22;45465;-85
2023/09/09 17:02:23;;;;;;;;;10.80;9.60;;;;;;;;6285279;22;45394;-85
2023/09/09 17:04:48;;;;;;;;;11.50;10.25;;;;;;;;6311380;22;45151;-86
2023/09/09 17:07:13;;;;;;;;;10.50;10.00;;;;;;;;6313054;22;45190;-85
2023/09/09 17:09:39;;;;;;;;;10.00;8.00;;;;;;;;6311158;22;45201;-85
2023/09/09 17:12:04;;;;;;;;;10.00;10.00;;;;;;;;6309466;22;45177;-83
2023/09/09 17:14:30;;;;;;;;;8.25;8.25;;;;;;;;6308851;22;45212;-84
2023/09/09 17:16:55;;;;;;;;;9.20;9.00;;;;;;;;6281119;22;45298;-85
2023/09/09 17:19:21;;;;;;;;;10.00;10.00;;;;;;;;6308645;22;45578;-84
2023/09/09 17:21:46;;;;;;;;;9.00;9.00;;;;;;;;6308624;22;45388;-84
2023/09/09 17:24:12;;;;;;;;;11.00;10.00;;;;;;;;6306952;22;45334;-85
2023/09/09 17:26:37;;;;;;;;;12.00;11.25;;;;;;;;6308193;22;45317;-85
2023/09/09 17:29:04;;;;;;;;;13.75;11.00;;;;;;;;6308379;22;45319;-84
2023/09/09 17:31:29;;;;;;;;;9.00;9.00;;;;;;;;6307100;22;45321;-85
2023/09/09 17:33:54;;;;;;;;;9.75;9.75;;;;;;;;6309036;22;45275;-85
2023/09/09 17:36:19;;;;;;;;;11.25;9.75;;;;;;;;6308782;22;45334;-85
2023/09/09 17:38:48;;;;;;;;;9.50;9.25;;;;;;;;6309045;22;46024;-84
2023/09/09 17:41:14;;;;;;;;;18.80;17.60;;;;;;;;6309027;22;45189;-86
2023/09/09 17:43:40;;;;;;;;;15.25;14.50;;;;;;;;6283213;22;45363;-85
2023/09/09 17:46:05;;;;;;;;;12.20;12.20;;;;;;;;6284434;22;45473;-86
2023/09/09 17:48:31;;;;;;;;;12.25;11.25;;;;;;;;6284320;22;46748;-85
2023/09/09 17:50:56;;;;;;;;;9.75;9.25;;;;;;;;6285688;22;45289;-85
2023/09/09 17:53:21;;;;;;;;;14.00;11.25;;;;;;;;6285549;22;45450;-83
2023/09/09 17:55:47;;;;;;;;;12.50;11.50;;;;;;;;6291919;22;46083;-85
2023/09/09 17:58:12;;;;;;;;;12.60;11.20;;;;;;;;6320370;22;46619;-83
2023/09/09 18:00:37;;;;;;;;;10.00;10.00;;;;;;;;6313174;22;45407;-85
2023/09/09 18:03:03;;;;;;;;;10.00;10.00;;;;;;;;6313594;22;45444;-86
2023/09/09 18:05:34;;;;;;;;;11.25;10.75;;;;;;;;6281505;22;45466;-84
2023/09/09 18:08:00;;;;;;;;;12.80;12.40;;;;;;;;6307962;22;45352;-85
2023/09/09 18:10:25;;;;;;;;;13.00;12.25;;;;;;;;6309032;22;45173;-84
2023/09/09 18:12:50;;;;;;;;;8.50;8.50;;;;;;;;6309794;22;45209;-85
2023/09/09 18:15:15;;;;;;;;;10.25;10.25;;;;;;;;6308744;22;45270;-85
2023/09/09 18:17:41;;;;;;;;;11.00;9.75;;;;;;;;6309050;22;45980;-83
2023/09/09 18:20:06;;;;;;;;;12.00;11.00;;;;;;;;6309065;22;45263;-82
2023/09/09 18:22:31;;;;;;;;;12.00;11.00;;;;;;;;6309836;22;45245;-83
2023/09/09 18:24:56;;;;;;;;;11.25;11.25;;;;;;;;6279972;22;45491;-85
2023/09/09 18:27:22;;;;;;;;;12.25;10.25;;;;;;;;6309534;22;46408;-84
2023/09/09 18:29:47;;;;;;;;;11.25;10.25;;;;;;;;6280618;22;45271;-83
2023/09/09 18:32:12;;;;;;;;;13.00;12.25;;;;;;;;6309840;22;45224;-84
2023/09/09 18:34:37;;;;;;;;;11.25;11.25;;;;;;;;6309300;22;45186;-83
2023/09/09 18:37:03;;;;;;;;;12.75;11.25;;;;;;;;6309537;22;45385;-82
2023/09/09 18:39:29;;;;;;;;;13.20;12.00;;;;;;;;6310489;22;45271;-84
2023/09/09 18:41:54;;;;;;;;;15.75;15.00;;;;;;;;6309886;22;45357;-83
2023/09/09 18:44:19;;;;;;;;;13.75;12.50;;;;;;;;6281635;22;46522;-82
2023/09/09 18:46:45;;;;;;;;;16.75;14.00;;;;;;;;6312144;22;45511;-84
2023/09/09 18:49:10;;;;;;;;;24.50;21.00;;;;;;;;6313896;22;45163;-84
2023/09/09 18:51:35;;;;;;;;;21.25;20.00;;;;;;;;6314912;22;45152;-85
2023/09/09 18:54:00;;;;;;;;;23.25;23.25;;;;;;;;6311617;22;45163;-85
2023/09/09 18:56:25;;;;;;;;;21.25;19.75;;;;;;;;6281808;22;46461;-84
2023/09/09 18:58:51;;;;;;;;;24.00;22.25;;;;;;;;6281185;22;45089;-83
2023/09/09 19:01:16;;;;;;;;;31.75;27.75;;;;;;;;6280635;22;45224;-82
2023/09/09 19:03:41;;;;;;;;;28.50;27.00;;;;;;;;6309979;22;45532;-85
2023/09/09 19:06:06;;;;;;;;;23.00;22.25;;;;;;;;6308933;22;45521;-84
2023/09/09 19:08:31;;;;;;;;;21.25;20.75;;;;;;;;6281703;22;45315;-83
2023/09/09 19:10:57;;;;;;;;;22.75;21.00;;;;;;;;6308867;22;45207;-84
2023/09/09 19:13:22;;;;;;;;;24.00;21.00;;;;;;;;6309893;22;45180;-82
2023/09/09 19:15:48;;;;;;;;;21.00;18.75;;;;;;;;6308890;22;46304;-84
2023/09/09 19:18:13;;;;;;;;;21.40;21.20;;;;;;;;6309309;22;45136;-83
2023/09/09 19:20:39;;;;;;;;;21.00;18.25;;;;;;;;6309563;22;45186;-84
2023/09/09 19:23:04;;;;;;;;;19.00;19.00;;;;;;;;6309560;22;45226;-84
2023/09/09 19:25:29;;;;;;;;;20.75;17.00;;;;;;;;6309568;22;45283;-81
2023/09/09 19:27:54;;;;;;;;;18.75;13.25;;;;;;;;6311430;22;45254;-83
2023/09/09 19:30:20;;;;;;;;;17.75;14.75;;;;;;;;6311441;22;45247;-83
2023/09/09 19:32:45;;;;;;;;;17.25;15.50;;;;;;;;6311807;22;45322;-84
2023/09/09 19:35:10;;;;;;;;;13.75;13.75;;;;;;;;6309189;22;45356;-85
2023/09/09 19:37:35;;;;;;;;;16.50;14.00;;;;;;;;6310419;22;45285;-84
2023/09/09 19:40:02;;;;;;;;;14.75;13.25;;;;;;;;6310847;22;45188;-84
2023/09/09 19:42:28;;;;;;;;;16.60;16.40;;;;;;;;6284233;22;45426;-85
2023/09/09 19:44:57;;;;;;;;;16.50;15.50;;;;;;;;6311210;22;45239;-85
2023/09/09 19:47:22;;;;;;;;;14.40;12.80;;;;;;;;6311487;22;45235;-83
2023/09/09 19:49:48;;;;;;;;;16.25;14.75;;;;;;;;6312357;22;45413;-85
2023/09/09 19:52:14;;;;;;;;;16.25;15.25;;;;;;;;6283075;22;45943;-85
2023/09/09 19:54:39;;;;;;;;;15.00;13.20;;;;;;;;6312144;22;45222;-85
2023/09/09 19:57:05;;;;;;;;;18.50;14.00;;;;;;;;6310441;22;45192;-85
2023/09/09 19:59:30;;;;;;;;;12.00;11.00;;;;;;;;6280719;22;45149;-83
2023/09/09 20:01:56;;;;;;;;;14.75;13.75;;;;;;;;6308716;22;45210;-83
2023/09/09 20:04:21;;;;;;;;;14.50;12.50;;;;;;;;6311194;22;45213;-83
2023/09/09 20:06:46;;;;;;;;;13.75;12.75;;;;;;;;6283875;22;45269;-83
2023/09/09 20:09:11;;;;;;;;;11.00;11.00;;;;;;;;6311777;22;45249;-84
2023/09/09 20:11:36;;;;;;;;;15.00;13.50;;;;;;;;6309751;22;45316;-83
2023/09/09 20:14:02;;;;;;;;;15.25;14.00;;;;;;;;6309887;22;45281;-84